Time;durP1;ratioP1;P1;durP2;ratioP2;P2;SDS_P1;SDS_P2;PMS_P1;PMS_P2;Temp;Humidity;BMP_temperature;BMP_pressure;BME280_temperature;BME280_humidity;BME280_pressure;Samples;Min_cycle;Max_cycle;Signal;HPM_P1;HPM_P2
2022/09/28 00:00:33;;;;;;;3.30;1.30;;;;;;;8.40;100.00;98956.84;5010568;28;20100;-77
2022/09/28 00:03:00;;;;;;;2.07;1.40;;;;;;;8.33;100.00;98951.88;5011367;28;20038;-76
2022/09/28 00:05:27;;;;;;;1.43;1.20;;;;;;;8.30;100.00;98957.25;5012435;28;20042;-76
2022/09/28 00:07:55;;;;;;;1.87;1.33;;;;;;;8.27;100.00;98952.97;5019587;28;20048;-76
2022/09/28 00:10:22;;;;;;;1.83;1.30;;;;;;;8.22;100.00;98952.28;5011746;28;20391;-77
2022/09/28 00:12:49;;;;;;;1.98;1.27;;;;;;;8.15;100.00;98961.31;5010161;28;20033;-76
2022/09/28 00:15:16;;;;;;;2.77;1.47;;;;;;;8.10;100.00;98958.00;5011103;28;20045;-76
2022/09/28 00:17:43;;;;;;;3.97;1.90;;;;;;;8.06;100.00;98953.75;5007147;28;20049;-76
2022/09/28 00:20:10;;;;;;;2.43;1.33;;;;;;;7.95;100.00;98958.56;5028502;28;20045;-77
2022/09/28 00:22:38;;;;;;;2.70;1.40;;;;;;;7.84;100.00;98949.31;5006412;28;20116;-77
2022/09/28 00:25:05;;;;;;;2.00;1.43;;;;;;;7.77;100.00;98950.44;5043782;28;20037;-76
2022/09/28 00:27:32;;;;;;;2.67;1.60;;;;;;;7.73;100.00;98946.19;5019425;28;20908;-76
2022/09/28 00:29:59;;;;;;;1.30;1.20;;;;;;;7.72;100.00;98949.75;5029431;28;20479;-77
2022/09/28 00:32:26;;;;;;;2.00;1.40;;;;;;;7.70;100.00;98938.44;4997481;28;20083;-76
2022/09/28 00:34:53;;;;;;;3.20;1.80;;;;;;;7.66;100.00;98941.25;4991225;28;20042;-76
2022/09/28 00:37:20;;;;;;;2.17;1.43;;;;;;;7.65;100.00;98950.03;5040527;28;20034;-79
2022/09/28 00:39:47;;;;;;;1.77;1.33;;;;;;;7.60;100.00;98945.81;5038884;28;20042;-78
2022/09/28 00:42:15;;;;;;;2.87;1.40;;;;;;;7.54;100.00;98951.25;5021210;28;20104;-78
2022/09/28 00:44:46;;;;;;;2.03;1.40;;;;;;;7.51;100.00;98940.88;5040735;28;20045;-78
2022/09/28 00:47:15;;;;;;;1.90;1.30;;;;;;;7.43;100.00;98939.44;5011475;28;20454;-77
2022/09/28 00:49:43;;;;;;;1.87;1.40;;;;;;;7.39;100.00;98950.94;5015152;28;20037;-76
2022/09/28 00:52:14;;;;;;;2.17;1.40;;;;;;;7.36;100.00;98948.44;5013279;28;20486;-76
2022/09/28 00:54:42;;;;;;;3.30;1.37;;;;;;;7.34;100.00;98936.22;4996293;28;20491;-76
2022/09/28 00:57:09;;;;;;;2.00;1.40;;;;;;;7.32;100.00;98939.81;5010079;28;20568;-76
2022/09/28 00:59:35;;;;;;;2.40;1.60;;;;;;;7.31;100.00;98944.22;5046902;28;20041;-76
2022/09/28 01:02:02;;;;;;;1.90;1.50;;;;;;;7.34;100.00;98946.72;5009935;28;20521;-76
2022/09/28 01:04:29;;;;;;;2.93;1.50;;;;;;;7.33;100.00;98941.53;5012210;28;20044;-76
2022/09/28 01:06:57;;;;;;;2.53;1.60;;;;;;;7.31;100.00;98946.84;5008428;28;20038;-77
2022/09/28 01:09:25;;;;;;;2.07;1.63;;;;;;;7.33;100.00;98936.28;5010485;28;20045;-76
2022/09/28 01:11:52;;;;;;;3.00;1.40;;;;;;;7.33;100.00;98941.53;5010075;28;20478;-76
2022/09/28 01:14:19;;;;;;;3.43;1.70;;;;;;;7.34;100.00;98940.63;5003961;28;20049;-77
2022/09/28 01:16:55;;;;;;;3.20;1.93;;;;;;;7.39;100.00;98945.69;5012860;28;20169;-76
2022/09/28 01:19:36;;;;;;;3.93;1.70;;;;;;;7.41;100.00;98931.63;5047471;28;20112;-76
2022/09/28 01:22:11;;;;;;;2.40;1.80;;;;;;;7.46;100.00;98934.06;5052567;28;20042;-78
2022/09/28 01:24:44;;;;;;;4.30;2.07;;;;;;;7.49;100.00;98936.59;5050405;28;20049;-78
2022/09/28 01:27:26;;;;;;;3.23;2.07;;;;;;;7.50;100.00;98930.44;5004291;28;20038;-79
2022/09/28 01:29:59;;;;;;;3.63;2.10;;;;;;;7.60;100.00;98929.19;5042388;28;20119;-78
2022/09/28 01:32:36;;;;;;;3.70;2.27;;;;;;;7.51;100.00;98942.66;5019387;28;20487;-78
2022/09/28 01:35:09;;;;;;;3.13;1.90;;;;;;;7.54;100.00;98935.50;5020882;28;20045;-78
2022/09/28 01:37:43;;;;;;;3.30;1.90;;;;;;;7.53;100.00;98931.16;5006689;28;20067;-78
2022/09/28 01:40:10;;;;;;;3.22;2.17;;;;;;;7.55;100.00;98931.09;5010296;28;20045;-79
2022/09/28 01:42:39;;;;;;;3.07;2.00;;;;;;;7.55;100.00;98934.59;5023427;28;20052;-78
2022/09/28 01:45:11;;;;;;;4.17;2.40;;;;;;;7.63;100.00;98927.28;5025714;28;20418;-78
2022/09/28 01:47:39;;;;;;;4.93;2.10;;;;;;;7.66;100.00;98933.38;5023278;28;20037;-79
2022/09/28 01:50:11;;;;;;;2.90;1.90;;;;;;;7.68;100.00;98924.50;5018607;28;20042;-78
2022/09/28 01:52:46;;;;;;;4.73;2.10;;;;;;;7.76;100.00;98919.81;5024464;28;20545;-78
2022/09/28 01:55:31;;;;;;;4.20;2.63;;;;;;;7.76;100.00;98932.97;5035117;28;20042;-79
2022/09/28 01:58:07;;;;;;;2.47;1.80;;;;;;;7.80;100.00;98925.81;5041037;28;20045;-78
2022/09/28 02:00:35;;;;;;;2.83;1.90;;;;;;;7.73;100.00;98924.31;5004856;28;20046;-79
2022/09/28 02:03:09;;;;;;;3.23;2.00;;;;;;;7.71;100.00;98923.53;5048752;28;20034;-79
2022/09/28 02:05:36;;;;;;;;;;;;;;;7.78;100.00;98925.03;5023156;28;20046;-78
2022/09/28 02:08:12;;;;;;;3.30;2.20;;;;;;;7.70;100.00;98924.44;5023312;28;19925;-78
2022/09/28 02:11:01;;;;;;;2.83;2.20;;;;;;;7.64;100.00;98922.88;5015983;28;20050;-79
2022/09/28 02:13:39;;;;;;;3.57;2.10;;;;;;;7.59;100.00;98927.47;5040211;28;20045;-78
2022/09/28 02:16:18;;;;;;;3.50;2.07;;;;;;;7.59;100.00;98922.22;5040004;28;20050;-78
2022/09/28 02:18:45;;;;;;;2.57;1.90;;;;;;;7.67;100.00;98925.41;5041388;28;20056;-79
2022/09/28 02:21:25;;;;;;;4.10;2.17;;;;;;;7.66;100.00;98913.19;5022776;28;20048;-78
2022/09/28 02:24:01;;;;;;;4.30;2.40;;;;;;;7.65;100.00;98913.22;5040612;28;20037;-79
2022/09/28 02:26:43;;;;;;;4.90;2.43;;;;;;;7.66;100.00;98918.44;5038866;28;20042;-78
2022/09/28 02:29:10;;;;;;;3.63;2.40;;;;;;;7.60;100.00;98924.78;5006800;28;20076;-79
2022/09/28 02:31:37;;;;;;;3.40;2.40;;;;;;;7.63;100.00;98918.53;5022528;28;20046;-79
2022/09/28 02:34:04;;;;;;;4.43;2.40;;;;;;;7.66;100.00;98921.09;5021242;28;20057;-78
2022/09/28 02:36:31;;;;;;;3.50;2.40;;;;;;;7.63;100.00;98921.16;5020116;28;20042;-78
2022/09/28 02:39:00;;;;;;;5.50;2.97;;;;;;;7.61;100.00;98923.00;5026352;28;20180;-78
2022/09/28 02:41:44;;;;;;;3.50;2.20;;;;;;;7.58;100.00;98913.47;4997393;28;20132;-76
2022/09/28 02:44:26;;;;;;;;;;;;;;;7.51;100.00;98914.59;5004965;28;20046;-76
2022/09/28 02:47:21;;;;;;;4.80;2.70;;;;;;;7.45;100.00;98916.59;5016365;28;19924;-79
2022/09/28 02:50:15;;;;;;;3.38;2.55;;;;;;;7.42;100.00;98917.56;5010065;28;20041;-79
2022/09/28 02:52:52;;;;;;;3.13;2.30;;;;;;;7.38;100.00;98917.72;5012502;28;20048;-79
2022/09/28 02:55:33;;;;;;;3.53;2.40;;;;;;;7.32;100.00;98917.03;5010706;28;20071;-77
2022/09/28 02:58:29;;;;;;;4.10;2.60;;;;;;;7.38;100.00;98917.72;5015790;28;20048;-78
2022/09/28 03:01:07;;;;;;;4.97;2.97;;;;;;;7.41;100.00;98915.00;5026826;28;20418;-78
2022/09/28 03:03:44;;;;;;;4.63;2.83;;;;;;;7.46;100.00;98913.03;5032322;28;20053;-78
2022/09/28 03:06:15;;;;;;;5.03;3.00;;;;;;;7.54;100.00;98909.22;5013385;28;20037;-77
2022/09/28 03:08:47;;;;;;;5.73;3.43;;;;;;;7.56;100.00;98906.53;5048957;28;20486;-79
2022/09/28 03:11:19;;;;;;;4.47;3.07;;;;;;;7.49;100.00;98910.31;5031350;28;20045;-79
2022/09/28 03:13:46;;;;;;;5.83;3.00;;;;;;;7.52;100.00;98904.94;5031345;28;20414;-79
2022/09/28 03:16:15;;;;;;;4.83;3.23;;;;;;;7.51;100.00;98908.50;5011042;28;20046;-77
2022/09/28 03:18:42;;;;;;;6.93;3.80;;;;;;;7.52;100.00;98905.81;5012836;28;20130;-77
2022/09/28 03:21:13;;;;;;;4.77;3.27;;;;;;;7.54;100.00;98900.47;5020208;28;20406;-77
2022/09/28 03:23:41;;;;;;;5.30;3.07;;;;;;;7.57;100.00;98908.28;5027847;28;20518;-77
2022/09/28 03:26:10;;;;;;;6.90;4.27;;;;;;;7.57;100.00;98906.50;5026595;28;20049;-77
2022/09/28 03:28:36;;;;;;;7.50;3.67;;;;;;;7.59;100.00;98898.56;4998727;28;20042;-77
2022/09/28 03:31:03;;;;;;;5.63;3.27;;;;;;;7.58;100.00;98899.47;5009328;28;20049;-76
2022/09/28 03:33:30;;;;;;;4.33;3.00;;;;;;;7.59;100.00;98902.03;5011433;28;20041;-77
2022/09/28 03:35:57;;;;;;;4.87;3.00;;;;;;;7.55;100.00;98896.94;5009601;28;20431;-77
2022/09/28 03:38:24;;;;;;;4.83;2.80;;;;;;;7.59;100.00;98903.81;5015308;28;20099;-79
2022/09/28 03:40:52;;;;;;;6.43;3.70;;;;;;;7.62;100.00;98895.81;5029186;28;20037;-77
2022/09/28 03:43:19;;;;;;;6.20;3.30;;;;;;;7.66;100.00;98891.31;5031686;28;20041;-78
2022/09/28 03:45:56;;;;;;;5.70;3.40;;;;;;;7.73;100.00;98900.66;4996337;28;20057;-78
2022/09/28 03:48:25;;;;;;;8.73;3.30;;;;;;;7.71;100.00;98890.22;5011619;28;20069;-78
2022/09/28 03:50:58;;;;;;;;;;;;;;;7.72;100.00;98896.31;5029550;28;20553;-78
2022/09/28 03:53:25;;;;;;;5.03;3.10;;;;;;;7.73;100.00;98895.41;5014560;28;19940;-78
2022/09/28 03:55:52;;;;;;;5.93;3.13;;;;;;;7.72;100.00;98893.69;4989203;28;20113;-76
2022/09/28 03:58:19;;;;;;;6.20;3.60;;;;;;;7.71;100.00;98887.59;5023943;28;20038;-76
2022/09/28 04:00:47;;;;;;;5.63;4.27;;;;;;;7.73;100.00;98884.88;5003766;28;20037;-75
2022/09/28 04:03:14;;;;;;;5.83;3.67;;;;;;;7.75;100.00;98886.56;4997701;28;20033;-78
2022/09/28 04:05:50;;;;;;;4.20;2.87;;;;;;;7.77;100.00;98887.38;5010646;28;20046;-77
2022/09/28 04:08:18;;;;;;;6.63;3.80;;;;;;;7.85;100.00;98879.19;5023886;28;20052;-78
2022/09/28 04:10:44;;;;;;;5.77;3.40;;;;;;;7.86;100.00;98887.00;4986179;28;20069;-77
2022/09/28 04:13:11;;;;;;;5.40;3.43;;;;;;;7.79;100.00;98885.53;4995475;28;20038;-78
2022/09/28 04:15:38;;;;;;;5.23;3.07;;;;;;;7.84;100.00;98880.97;5013151;28;20053;-78
2022/09/28 04:18:09;;;;;;;5.53;3.30;;;;;;;7.76;100.00;98877.75;5014850;28;20045;-77
2022/09/28 04:20:36;;;;;;;5.50;3.87;;;;;;;7.83;100.00;98883.66;5012731;28;20038;-78
2022/09/28 04:23:03;;;;;;;6.30;3.37;;;;;;;7.86;100.00;98879.13;5016315;28;20167;-76
2022/09/28 04:25:29;;;;;;;5.07;2.90;;;;;;;7.82;100.00;98874.91;5001913;28;20446;-77
2022/09/28 04:30:41;;;;;;;6.07;3.43;;;;;;;7.74;100.00;98886.63;5086473;22;20076;-82
2022/09/28 04:33:08;;;;;;;5.90;3.47;;;;;;;7.75;100.00;98878.69;4984038;28;20041;-79
2022/09/28 04:35:35;;;;;;;6.03;3.40;;;;;;;7.68;100.00;98879.81;4999650;28;20045;-80
2022/09/28 04:38:02;;;;;;;7.33;3.37;;;;;;;7.60;100.00;98885.34;4999530;28;20076;-80
2022/09/28 04:40:29;;;;;;;6.53;4.23;;;;;;;7.69;100.00;98875.41;4999075;28;20045;-79
2022/09/28 04:42:56;;;;;;;5.57;3.27;;;;;;;7.69;100.00;98878.06;5001114;28;20061;-81
2022/09/28 04:45:25;;;;;;;6.50;3.20;;;;;;;7.68;100.00;98871.09;5006973;28;20037;-80
2022/09/28 04:47:51;;;;;;;5.57;3.57;;;;;;;7.75;100.00;98873.44;4981228;28;20433;-82
2022/09/28 04:50:18;;;;;;;6.73;3.40;;;;;;;7.77;100.00;98876.00;5016876;28;20512;-80
2022/09/28 04:52:45;;;;;;;5.00;3.27;;;;;;;7.80;100.00;98879.34;4986652;28;20375;-80
2022/09/28 04:55:13;;;;;;;8.97;4.40;;;;;;;7.83;100.00;98874.00;4991184;28;20037;-80
2022/09/28 04:57:39;;;;;;;6.43;4.07;;;;;;;7.85;100.00;98863.41;4997189;28;20076;-81
2022/09/28 05:00:07;;;;;;;7.13;4.57;;;;;;;7.86;100.00;98873.88;5013438;28;20077;-81
2022/09/28 05:02:34;;;;;;;5.63;3.40;;;;;;;7.87;100.00;98862.44;4998034;28;20045;-82
2022/09/28 05:05:01;;;;;;;6.30;3.67;;;;;;;7.93;100.00;98865.75;5007693;28;20107;-79
2022/09/28 05:07:27;;;;;;;8.17;5.07;;;;;;;7.95;100.00;98862.13;4984479;28;20045;-79
2022/09/28 05:09:54;;;;;;;7.50;4.23;;;;;;;7.94;100.00;98864.84;4994438;28;20045;-81
2022/09/28 05:12:21;;;;;;;11.00;4.77;;;;;;;7.94;100.00;98865.69;4992739;28;20041;-79
2022/09/28 05:14:47;;;;;;;10.43;5.37;;;;;;;7.95;100.00;98863.91;5015634;28;20091;-80
2022/09/28 05:17:14;;;;;;;8.27;4.57;;;;;;;8.05;100.00;98863.50;4999150;28;20073;-79
2022/09/28 05:19:41;;;;;;;8.70;5.07;;;;;;;8.24;100.00;98868.91;4992977;28;20042;-81
2022/09/28 05:22:13;;;;;;;8.77;5.10;;;;;;;8.14;100.00;98863.13;4992751;28;20046;-78
2022/09/28 05:24:40;;;;;;;11.13;5.27;;;;;;;8.27;100.00;98860.03;4996744;28;20068;-78
2022/09/28 05:27:07;;;;;;;9.10;5.00;;;;;;;8.21;100.00;98869.00;4999917;28;20568;-80
2022/09/28 05:29:34;;;;;;;7.00;4.90;;;;;;;8.17;100.00;98875.31;5000188;28;20041;-78
2022/09/28 05:32:01;;;;;;;10.07;5.67;;;;;;;8.18;100.00;98879.66;4981394;28;20041;-78
2022/09/28 05:34:28;;;;;;;8.80;4.93;;;;;;;8.14;100.00;98880.69;4998796;28;20498;-80
2022/09/28 05:36:54;;;;;;;9.27;5.07;;;;;;;8.13;100.00;98889.50;5239005;23;20041;-79
2022/09/28 05:39:21;;;;;;;10.10;5.57;;;;;;;8.14;100.00;98880.69;4984085;28;20503;-81
2022/09/28 05:41:48;;;;;;;10.97;6.70;;;;;;;8.20;100.00;98880.47;4978951;28;20104;-80
2022/09/28 05:44:14;;;;;;;8.43;5.03;;;;;;;8.24;100.00;98889.97;4994236;28;20037;-79
2022/09/28 05:46:41;;;;;;;12.37;5.90;;;;;;;8.25;100.00;98881.16;5018964;28;20137;-80
2022/09/28 05:49:07;;;;;;;9.27;5.83;;;;;;;8.31;100.00;98880.88;5028471;28;20038;-80
2022/09/28 05:51:34;;;;;;;9.20;6.10;;;;;;;8.27;100.00;98883.72;5009274;28;20045;-80
2022/09/28 05:54:01;;;;;;;10.30;5.73;;;;;;;8.26;100.00;98882.00;5018254;28;20042;-79
2022/09/28 05:56:32;;;;;;;12.63;6.43;;;;;;;8.24;100.00;98879.44;5019639;28;20168;-82
2022/09/28 05:58:58;;;;;;;10.93;6.77;;;;;;;8.21;100.00;98882.16;5019093;28;20092;-79
2022/09/28 06:01:25;;;;;;;9.07;5.97;;;;;;;8.24;100.00;98871.53;5021961;28;20490;-79
2022/09/28 06:03:52;;;;;;;11.50;6.60;;;;;;;8.28;100.00;98873.13;4999271;28;20061;-81
2022/09/28 06:06:18;;;;;;;10.63;6.05;;;;;;;8.34;100.00;98875.53;4997646;28;20049;-80
2022/09/28 06:08:47;;;;;;;11.37;6.67;;;;;;;8.40;100.00;98874.44;5014306;28;20068;-83
2022/09/28 06:11:13;;;;;;;11.93;6.57;;;;;;;8.48;100.00;98877.59;4996439;28;20048;-79
2022/09/28 06:13:40;;;;;;;11.18;6.53;;;;;;;8.53;100.00;98878.28;4979772;28;20038;-81
2022/09/28 06:16:07;;;;;;;10.77;5.83;;;;;;;8.57;100.00;98871.09;4997062;28;20054;-80
2022/09/28 06:18:34;;;;;;;11.18;6.60;;;;;;;8.66;100.00;98865.47;5001419;28;20034;-80
2022/09/28 06:21:01;;;;;;;10.05;5.60;;;;;;;8.70;100.00;98869.69;4977337;28;20053;-81
2022/09/28 06:23:28;;;;;;;10.60;6.07;;;;;;;8.65;100.00;98871.66;4995281;28;20491;-81
2022/09/28 06:25:54;;;;;;;10.17;5.87;;;;;;;8.63;100.00;98858.56;4993159;28;20294;-82
2022/09/28 06:28:21;;;;;;;11.73;6.77;;;;;;;8.71;100.00;98863.50;4996097;28;20454;-80
2022/09/28 06:30:48;;;;;;;8.93;4.90;;;;;;;8.68;100.00;98861.88;4977228;28;20046;-80
2022/09/28 06:33:15;;;;;;;9.88;6.75;;;;;;;8.70;100.00;98867.91;4978468;28;20077;-81
2022/09/28 06:35:41;;;;;;;9.23;5.27;;;;;;;8.78;100.00;98864.13;5011898;28;20079;-79
2022/09/28 06:38:09;;;;;;;10.33;6.47;;;;;;;8.70;100.00;98867.06;5022842;28;20037;-79
2022/09/28 06:40:36;;;;;;;12.57;6.30;;;;;;;8.70;100.00;98849.50;5029913;28;20068;-81
2022/09/28 06:43:10;;;;;;;12.87;6.57;;;;;;;8.72;100.00;98855.53;5029623;28;20053;-80
2022/09/28 06:45:37;;;;;;;10.82;5.47;;;;;;;8.73;100.00;98861.66;4995997;28;20038;-80
2022/09/28 06:48:04;;;;;;;11.17;5.70;;;;;;;8.80;100.00;98862.28;5028906;28;20037;-80
2022/09/28 06:50:49;;;;;;;11.02;6.43;;;;;;;8.84;100.00;98859.47;4993224;28;20459;-80
2022/09/28 06:53:16;;;;;;;10.82;6.00;;;;;;;8.91;100.00;98865.28;4993738;28;20052;-80
2022/09/28 06:55:45;;;;;;;10.10;5.88;;;;;;;8.97;100.00;98854.50;5015186;28;20057;-80
2022/09/28 06:58:13;;;;;;;11.38;6.30;;;;;;;9.01;100.00;98859.59;5031182;28;20049;-81
2022/09/28 07:00:41;;;;;;;11.73;6.18;;;;;;;9.11;100.00;98860.06;5005254;28;20054;-80
2022/09/28 07:03:11;;;;;;;10.13;5.93;;;;;;;9.21;100.00;98855.25;4981937;28;20494;-80
2022/09/28 07:05:41;;;;;;;10.75;5.65;;;;;;;9.23;100.00;98850.75;4983202;28;20042;-80
2022/09/28 07:08:07;;;;;;;10.23;6.10;;;;;;;9.26;100.00;98856.75;5007377;28;20045;-79
2022/09/28 07:10:34;;;;;;;10.32;6.40;;;;;;;9.44;100.00;98856.88;4998459;28;20053;-80
2022/09/28 07:13:03;;;;;;;10.45;6.40;;;;;;;9.57;100.00;98850.94;5004848;28;20121;-80
2022/09/28 07:15:30;;;;;;;10.20;6.13;;;;;;;9.59;100.00;98857.03;5011909;28;20042;-80
2022/09/28 07:18:01;;;;;;;9.38;6.47;;;;;;;9.61;100.00;98854.31;5014818;28;20050;-80
2022/09/28 07:20:34;;;;;;;9.65;5.75;;;;;;;9.67;100.00;98869.88;5002169;28;20045;-81
2022/09/28 07:23:17;;;;;;;9.05;6.13;;;;;;;9.86;100.00;98860.19;4995837;28;20702;-80
2022/09/28 07:25:46;;;;;;;8.93;5.95;;;;;;;9.78;100.00;98850.91;4995958;28;20045;-80
2022/09/28 07:28:14;;;;;;;9.98;6.35;;;;;;;9.76;100.00;98850.16;5028482;28;20486;-82
2022/09/28 07:30:42;;;;;;;8.82;6.50;;;;;;;9.79;100.00;98855.25;5002330;28;20056;-81
2022/09/28 07:33:13;;;;;;;9.85;5.80;;;;;;;9.90;100.00;98860.88;4994164;28;20033;-83
2022/09/28 07:35:41;;;;;;;9.23;5.55;;;;;;;9.98;100.00;98864.03;4984995;28;20478;-81
2022/09/28 07:38:09;;;;;;;9.80;6.05;;;;;;;10.06;100.00;98856.59;4990832;28;20049;-81
2022/09/28 07:43:21;;;;;;;8.68;5.72;;;;;;;10.07;100.00;98866.22;5012485;28;20050;-83
2022/09/28 07:45:52;;;;;;;11.43;6.53;;;;;;;10.45;100.00;98868.03;4993742;28;20438;-81
2022/09/28 07:48:20;;;;;;;7.28;5.40;;;;;;;10.53;100.00;98860.59;5001515;28;20061;-81
2022/09/28 07:50:51;;;;;;;9.93;6.03;;;;;;;10.43;100.00;98860.19;4998466;28;20061;-81
2022/09/28 07:53:19;;;;;;;10.48;6.95;;;;;;;10.46;100.00;98865.31;4991495;28;20096;-81
2022/09/28 07:56:07;;;;;;;8.30;5.88;;;;;;;10.57;100.00;98864.78;4992088;28;20037;-81
2022/09/28 07:58:36;;;;;;;9.25;6.57;;;;;;;10.63;100.00;98856.56;4991530;28;20048;-81
2022/09/28 08:01:09;;;;;;;8.40;5.57;;;;;;;10.62;100.00;98865.41;5018733;28;20053;-81
2022/09/28 08:03:37;;;;;;;8.17;5.47;;;;;;;10.59;100.00;98862.91;4986885;28;20045;-82
2022/09/28 08:06:06;;;;;;;10.30;5.53;;;;;;;10.57;100.00;98862.13;5000851;28;20037;-82
2022/09/28 08:08:34;;;;;;;8.07;5.43;;;;;;;10.56;100.00;98869.19;5000624;28;20045;-81
2022/09/28 08:11:01;;;;;;;9.38;4.95;;;;;;;10.61;100.00;98869.00;5007167;28;20480;-82
2022/09/28 08:13:28;;;;;;;7.28;5.13;;;;;;;10.64;100.00;98863.53;4984184;28;20568;-82
2022/09/28 08:15:59;;;;;;;8.35;5.80;;;;;;;10.75;100.00;98869.13;4983430;28;20120;-82
2022/09/28 08:18:26;;;;;;;11.10;6.82;;;;;;;10.75;100.00;98863.84;4985818;28;20104;-82
2022/09/28 08:23:38;;;;;;;7.10;5.32;;;;;;;10.58;100.00;98864.69;5004072;28;20099;-82
2022/09/28 08:26:05;;;;;;;7.95;5.63;;;;;;;10.63;100.00;98870.59;4964707;28;20042;-81
2022/09/28 08:28:33;;;;;;;9.35;5.55;;;;;;;10.66;100.00;98865.16;5018041;28;20046;-82
2022/09/28 08:31:00;;;;;;;8.27;5.57;;;;;;;10.78;100.00;98868.16;4998960;28;20038;-82
2022/09/28 08:33:27;;;;;;;8.38;6.05;;;;;;;10.90;100.00;98865.72;5006572;28;20099;-82
2022/09/28 08:35:57;;;;;;;6.97;4.82;;;;;;;10.81;100.00;98865.34;4992059;28;20910;-81
2022/09/28 08:38:25;;;;;;;6.60;4.75;;;;;;;10.74;100.00;98866.56;5001643;28;20554;-81
2022/09/28 08:41:10;;;;;;;8.02;5.68;;;;;;;10.88;100.00;98864.13;5017205;28;20072;-82
2022/09/28 08:43:59;;;;;;;8.35;5.72;;;;;;;10.93;100.00;98862.97;5017800;28;20045;-82
2022/09/28 08:46:32;;;;;;;7.57;5.65;;;;;;;11.09;100.00;98859.50;4996333;28;20092;-82
2022/09/28 08:49:08;;;;;;;7.13;4.93;;;;;;;11.17;100.00;98874.03;5023297;28;20041;-81
2022/09/28 08:51:57;;;;;;;5.88;4.63;;;;;;;10.98;100.00;98868.00;4991256;28;20065;-81
2022/09/28 08:54:27;;;;;;;8.02;5.22;;;;;;;11.06;100.00;98868.47;5004494;28;20495;-81
2022/09/28 08:57:01;;;;;;;7.85;5.20;;;;;;;11.22;100.00;98873.81;5019500;28;20494;-81
2022/09/28 08:59:52;;;;;;;6.95;4.28;;;;;;;10.92;100.00;98873.56;5002746;28;20083;-82
2022/09/28 09:02:32;;;;;;;5.72;4.53;;;;;;;10.74;100.00;98875.34;4998654;28;20610;-81
2022/09/28 09:05:02;;;;;;;6.20;4.80;;;;;;;10.64;100.00;98879.38;5003281;28;20040;-81
2022/09/28 09:07:41;;;;;;;7.35;4.35;;;;;;;10.53;100.00;98866.72;4986223;28;20045;-82
2022/09/28 09:10:52;;;;;;;6.25;4.25;;;;;;;10.43;100.00;98871.59;4998695;28;20056;-81
2022/09/28 09:13:36;;;;;;;5.03;3.90;;;;;;;10.38;100.00;98873.59;5032891;28;20045;-81
2022/09/28 09:16:03;;;;;;;12.32;4.82;;;;;;;10.14;100.00;98875.56;5023977;28;20042;-82
2022/09/28 09:18:36;;;;;;;5.88;4.38;;;;;;;9.85;100.00;98884.84;5004998;28;20045;-81
2022/09/28 09:21:41;;;;;;;6.53;4.30;;;;;;;9.98;100.00;98879.00;5017363;28;20041;-81
2022/09/28 09:24:20;;;;;;;5.25;3.55;;;;;;;10.18;100.00;98880.72;4977882;28;20053;-82
2022/09/28 09:26:51;;;;;;;6.15;3.58;;;;;;;10.25;100.00;98876.88;4995613;28;20050;-81
2022/09/28 09:29:34;;;;;;;5.22;3.63;;;;;;;10.30;100.00;98881.00;5007013;28;20045;-81
2022/09/28 09:32:23;;;;;;;6.18;4.25;;;;;;;10.40;100.00;98884.91;5017302;28;20045;-81
2022/09/28 09:34:59;;;;;;;6.20;3.85;;;;;;;10.36;100.00;98879.88;5028591;28;20037;-81
2022/09/28 09:38:05;;;;;;;8.02;4.68;;;;;;;10.31;100.00;98880.09;5000766;28;20049;-82
2022/09/28 09:40:35;;;;;;;5.15;4.20;;;;;;;10.45;100.00;98887.34;5017136;28;20042;-82
2022/09/28 09:43:21;;;;;;;5.57;3.60;;;;;;;10.52;100.00;98872.06;5018503;28;20056;-81
2022/09/28 09:45:58;;;;;;;6.00;4.47;;;;;;;10.67;100.00;98877.44;5017242;28;20052;-81
2022/09/28 09:48:28;;;;;;;6.50;3.50;;;;;;;10.71;100.00;98876.38;5001458;28;20128;-82
2022/09/28 09:51:24;;;;;;;4.88;3.30;;;;;;;10.82;100.00;98867.91;4999960;28;20052;-81
2022/09/28 09:53:58;;;;;;;5.43;3.55;;;;;;;10.95;100.00;98868.16;4989615;28;20077;-81
2022/09/28 09:56:37;;;;;;;5.20;3.63;;;;;;;11.00;100.00;98869.63;5016492;28;20041;-81
2022/09/28 09:59:11;;;;;;;4.70;3.10;;;;;;;11.02;100.00;98864.28;5001316;28;20053;-81
2022/09/28 10:01:39;;;;;;;4.93;3.38;;;;;;;10.91;100.00;98867.44;5000743;28;20052;-81
2022/09/28 10:04:13;;;;;;;4.63;3.97;;;;;;;10.81;100.00;98865.34;5001852;28;20045;-81
2022/09/28 10:06:40;;;;;;;5.25;3.72;;;;;;;10.55;100.00;98859.56;5000209;28;20418;-81
2022/09/28 10:09:29;;;;;;;3.92;3.08;;;;;;;10.58;100.00;98863.84;5017947;28;20041;-81
2022/09/28 10:11:56;;;;;;;9.05;3.40;;;;;;;11.02;100.00;98859.00;5016100;28;20045;-81
2022/09/28 10:14:24;;;;;;;4.20;3.30;;;;;;;11.08;100.00;98853.38;5000826;28;20475;-81
2022/09/28 10:16:54;;;;;;;6.85;4.63;;;;;;;10.94;100.00;98855.88;5015403;28;20045;-81
2022/09/28 10:19:31;;;;;;;4.82;3.50;;;;;;;11.01;100.00;98857.25;5017432;28;20049;-82
2022/09/28 10:22:05;;;;;;;3.95;2.95;;;;;;;11.00;100.00;98861.69;5015065;28;20049;-82
2022/09/28 10:24:36;;;;;;;3.10;2.67;;;;;;;11.10;100.00;98862.09;5001028;28;20037;-81
2022/09/28 10:27:21;;;;;;;4.88;3.47;;;;;;;11.48;100.00;98852.16;5015666;28;20048;-81
2022/09/28 10:29:54;;;;;;;6.85;4.25;;;;;;;11.23;100.00;98857.03;5039381;28;20107;-81
2022/09/28 10:32:37;;;;;;;3.67;2.77;;;;;;;11.35;100.00;98860.81;4999194;28;20046;-80
2022/09/28 10:35:17;;;;;;;5.80;3.50;;;;;;;11.35;100.00;98861.69;5022988;28;20126;-81
2022/09/28 10:37:54;;;;;;;3.88;3.08;;;;;;;11.31;100.00;98864.56;5014787;28;20514;-80
2022/09/28 10:40:29;;;;;;;3.60;2.80;;;;;;;11.32;100.00;98866.25;5070995;23;20056;-76
2022/09/28 10:43:01;;;;;;;5.30;2.90;;;;;;;11.21;100.00;98859.75;5017555;28;20052;-77
2022/09/28 10:45:32;;;;;;;3.85;2.75;;;;;;;11.11;100.00;98871.72;4963476;28;20049;-77
2022/09/28 10:48:00;;;;;;;4.90;2.97;;;;;;;11.18;100.00;98870.50;4948628;28;20042;-76
2022/09/28 10:50:27;;;;;;;3.58;2.60;;;;;;;11.19;100.00;98876.63;4965236;28;20438;-76
2022/09/28 10:53:09;;;;;;;3.70;2.65;;;;;;;11.08;100.00;98878.94;4970549;28;20041;-76
2022/09/28 10:55:36;;;;;;;4.43;2.60;;;;;;;11.08;100.00;98874.50;4956325;28;20039;-77
2022/09/28 10:58:26;;;;;;;4.43;2.55;;;;;;;11.13;100.00;98876.94;4953528;28;20053;-77
2022/09/28 11:01:02;;;;;;;5.50;3.55;;;;;;;11.17;100.00;98881.13;4957029;28;20105;-77
2022/09/28 11:03:29;;;;;;;4.05;3.30;;;;;;;11.16;100.00;98879.41;4967125;28;20065;-76
2022/09/28 11:05:59;;;;;;;4.63;3.45;;;;;;;11.13;100.00;98872.50;4973998;28;20499;-77
2022/09/28 11:08:36;;;;;;;5.03;3.80;;;;;;;11.06;100.00;98876.38;4953866;28;20060;-77
2022/09/28 11:11:12;;;;;;;5.18;3.75;;;;;;;11.13;100.00;98871.66;5009090;28;20132;-76
2022/09/28 11:13:41;;;;;;;4.97;3.83;;;;;;;11.21;100.00;98875.59;4976602;28;20048;-77
2022/09/28 11:16:18;;;;;;;5.55;3.78;;;;;;;11.32;100.00;98872.41;4989377;28;20038;-77
2022/09/28 11:18:44;;;;;;;5.65;4.20;;;;;;;11.49;100.00;98871.53;4975109;28;20053;-76
2022/09/28 11:21:17;;;;;;;4.50;3.80;;;;;;;11.48;100.00;98867.16;4976682;28;20049;-77
2022/09/28 11:24:06;;;;;;;4.05;3.08;;;;;;;11.47;100.00;98870.75;4968886;28;20046;-77
2022/09/28 11:26:40;;;;;;;4.63;3.92;;;;;;;11.61;100.00;98870.88;4960306;28;20038;-77
2022/09/28 11:29:19;;;;;;;4.95;4.15;;;;;;;11.68;100.00;98869.59;4966392;28;20097;-77
2022/09/28 11:31:46;;;;;;;5.30;3.53;;;;;;;11.75;100.00;98863.03;5005288;28;20364;-76
2022/09/28 11:34:19;;;;;;;4.38;3.80;;;;;;;11.95;100.00;98871.75;4964832;28;20460;-76
2022/09/28 11:37:27;;;;;;;4.38;3.63;;;;;;;11.83;100.00;98867.97;4972861;28;20042;-76
2022/09/28 11:40:15;;;;;;;5.90;4.10;;;;;;;12.01;100.00;98869.59;4992530;28;20045;-77
2022/09/28 11:42:57;;;;;;;6.03;3.95;;;;;;;12.35;98.28;98873.88;4983338;28;20046;-76
2022/09/28 11:45:39;;;;;;;4.30;3.80;;;;;;;12.35;100.00;98868.56;4985356;28;20038;-77
2022/09/28 11:48:14;;;;;;;4.20;3.30;;;;;;;12.55;100.00;98871.91;4974321;28;20046;-77
2022/09/28 11:50:43;;;;;;;4.22;3.47;;;;;;;12.70;92.05;98873.69;4969813;28;20047;-76
2022/09/28 11:53:19;;;;;;;6.68;3.00;;;;;;;12.79;96.88;98865.22;4977997;28;20076;-76
2022/09/28 11:55:50;;;;;;;4.53;3.35;;;;;;;12.79;97.33;98870.50;4997168;28;20048;-76
2022/09/28 11:58:26;;;;;;;3.75;2.70;;;;;;;12.84;96.22;98870.22;4974740;28;20130;-77